sensor_id;sensor_type;location;lat;lon;timestamp;temperature;humidity
52611;DHT22;38727;40.130;18.292;2024-01-27T00:00:58;8.80;76.50
52611;DHT22;38727;40.130;18.292;2024-01-27T00:03:28;8.70;76.50
52611;DHT22;38727;40.130;18.292;2024-01-27T00:06:06;8.70;76.50
52611;DHT22;38727;40.130;18.292;2024-01-27T00:08:44;8.70;76.70
52611;DHT22;38727;40.130;18.292;2024-01-27T00:11:22;8.80;76.70
52611;DHT22;38727;40.130;18.292;2024-01-27T00:14:04;8.80;76.70
52611;DHT22;38727;40.130;18.292;2024-01-27T00:16:49;8.80;76.60
52611;DHT22;38727;40.130;18.292;2024-01-27T00:19:27;8.80;76.50
52611;DHT22;38727;40.130;18.292;2024-01-27T00:22:06;8.80;76.30
52611;DHT22;38727;40.130;18.292;2024-01-27T00:24:48;8.80;76.10
52611;DHT22;38727;40.130;18.292;2024-01-27T00:27:21;8.80;75.90
52611;DHT22;38727;40.130;18.292;2024-01-27T00:29:55;8.60;75.70
52611;DHT22;38727;40.130;18.292;2024-01-27T00:32:37;8.50;75.80
52611;DHT22;38727;40.130;18.292;2024-01-27T00:35:11;8.40;75.90
52611;DHT22;38727;40.130;18.292;2024-01-27T00:37:48;8.30;75.90
52611;DHT22;38727;40.130;18.292;2024-01-27T00:40:26;8.30;76.30
52611;DHT22;38727;40.130;18.292;2024-01-27T00:42:58;8.30;76.50
52611;DHT22;38727;40.130;18.292;2024-01-27T00:45:28;8.40;76.40
52611;DHT22;38727;40.130;18.292;2024-01-27T00:48:25;8.40;76.20
52611;DHT22;38727;40.130;18.292;2024-01-27T00:51:00;8.30;76.10
52611;DHT22;38727;40.130;18.292;2024-01-27T00:53:54;8.40;76.00
52611;DHT22;38727;40.130;18.292;2024-01-27T00:56:27;8.40;76.00
52611;DHT22;38727;40.130;18.292;2024-01-27T00:59:07;8.40;75.80
52611;DHT22;38727;40.130;18.292;2024-01-27T01:01:50;8.30;75.50
52611;DHT22;38727;40.130;18.292;2024-01-27T01:04:25;8.30;75.40
52611;DHT22;38727;40.130;18.292;2024-01-27T01:07:05;8.20;75.30
52611;DHT22;38727;40.130;18.292;2024-01-27T01:09:38;8.10;75.50
52611;DHT22;38727;40.130;18.292;2024-01-27T01:12:44;8.10;75.70
52611;DHT22;38727;40.130;18.292;2024-01-27T01:15:33;8.10;75.90
52611;DHT22;38727;40.130;18.292;2024-01-27T01:18:08;8.10;76.10
52611;DHT22;38727;40.130;18.292;2024-01-27T01:20:46;8.20;76.00
52611;DHT22;38727;40.130;18.292;2024-01-27T01:23:23;8.20;75.80
52611;DHT22;38727;40.130;18.292;2024-01-27T01:25:56;8.20;75.70
52611;DHT22;38727;40.130;18.292;2024-01-27T01:28:31;8.10;75.50
52611;DHT22;38727;40.130;18.292;2024-01-27T01:31:02;8.00;75.40
52611;DHT22;38727;40.130;18.292;2024-01-27T01:33:53;7.90;75.40
52611;DHT22;38727;40.130;18.292;2024-01-27T01:36:36;7.80;75.50
52611;DHT22;38727;40.130;18.292;2024-01-27T01:39:10;7.80;75.80
52611;DHT22;38727;40.130;18.292;2024-01-27T01:41:55;7.80;76.00
52611;DHT22;38727;40.130;18.292;2024-01-27T01:44:34;7.80;76.10
52611;DHT22;38727;40.130;18.292;2024-01-27T01:47:08;7.80;76.10
52611;DHT22;38727;40.130;18.292;2024-01-27T01:49:51;7.90;76.00
52611;DHT22;38727;40.130;18.292;2024-01-27T01:52:39;7.90;75.90
52611;DHT22;38727;40.130;18.292;2024-01-27T01:55:41;7.90;76.10
52611;DHT22;38727;40.130;18.292;2024-01-27T01:58:47;7.90;76.10
52611;DHT22;38727;40.130;18.292;2024-01-27T02:01:47;7.80;76.00
52611;DHT22;38727;40.130;18.292;2024-01-27T02:04:21;7.70;76.00
52611;DHT22;38727;40.130;18.292;2024-01-27T02:06:56;7.70;76.40
52611;DHT22;38727;40.130;18.292;2024-01-27T02:09:27;7.70;76.70
52611;DHT22;38727;40.130;18.292;2024-01-27T02:12:08;7.70;77.10
52611;DHT22;38727;40.130;18.292;2024-01-27T02:14:46;7.80;77.30
52611;DHT22;38727;40.130;18.292;2024-01-27T02:17:23;7.80;77.20
52611;DHT22;38727;40.130;18.292;2024-01-27T02:19:56;7.80;77.00
52611;DHT22;38727;40.130;18.292;2024-01-27T02:22:36;7.90;76.80
52611;DHT22;38727;40.130;18.292;2024-01-27T02:25:12;7.90;76.60
52611;DHT22;38727;40.130;18.292;2024-01-27T02:27:42;7.90;76.50
52611;DHT22;38727;40.130;18.292;2024-01-27T02:30:39;7.90;76.30
52611;DHT22;38727;40.130;18.292;2024-01-27T02:33:12;7.90;75.90
52611;DHT22;38727;40.130;18.292;2024-01-27T02:35:47;7.80;75.80
52611;DHT22;38727;40.130;18.292;2024-01-27T02:38:28;7.80;75.70
52611;DHT22;38727;40.130;18.292;2024-01-27T02:41:13;7.80;75.60
52611;DHT22;38727;40.130;18.292;2024-01-27T02:43:46;7.80;75.50
52611;DHT22;38727;40.130;18.292;2024-01-27T02:46:18;7.80;75.40
52611;DHT22;38727;40.130;18.292;2024-01-27T02:48:55;7.80;75.40
52611;DHT22;38727;40.130;18.292;2024-01-27T02:51:50;7.70;75.00
52611;DHT22;38727;40.130;18.292;2024-01-27T02:54:21;7.60;75.00
52611;DHT22;38727;40.130;18.292;2024-01-27T02:57:05;7.60;75.30
52611;DHT22;38727;40.130;18.292;2024-01-27T02:59:45;7.70;75.50
52611;DHT22;38727;40.130;18.292;2024-01-27T03:02:39;7.70;75.30
52611;DHT22;38727;40.130;18.292;2024-01-27T03:05:12;7.80;75.20
52611;DHT22;38727;40.130;18.292;2024-01-27T03:07:46;7.80;75.20
52611;DHT22;38727;40.130;18.292;2024-01-27T03:10:20;7.90;75.10
52611;DHT22;38727;40.130;18.292;2024-01-27T03:12:55;7.90;74.90
52611;DHT22;38727;40.130;18.292;2024-01-27T03:15:29;8.00;74.70
52611;DHT22;38727;40.130;18.292;2024-01-27T03:20:50;8.00;74.20
52611;DHT22;38727;40.130;18.292;2024-01-27T03:23:20;8.10;74.20
52611;DHT22;38727;40.130;18.292;2024-01-27T03:25:54;8.10;74.00
52611;DHT22;38727;40.130;18.292;2024-01-27T03:28:25;8.20;73.40
52611;DHT22;38727;40.130;18.292;2024-01-27T03:30:56;8.20;72.90
52611;DHT22;38727;40.130;18.292;2024-01-27T03:33:30;8.20;72.40
52611;DHT22;38727;40.130;18.292;2024-01-27T03:36:01;8.20;72.00
52611;DHT22;38727;40.130;18.292;2024-01-27T03:38:31;8.20;72.00
52611;DHT22;38727;40.130;18.292;2024-01-27T03:41:07;8.20;72.00
52611;DHT22;38727;40.130;18.292;2024-01-27T03:43:41;8.20;72.00
52611;DHT22;38727;40.130;18.292;2024-01-27T03:46:12;8.20;72.10
52611;DHT22;38727;40.130;18.292;2024-01-27T03:48:42;8.20;72.20
52611;DHT22;38727;40.130;18.292;2024-01-27T03:51:13;8.20;72.30
52611;DHT22;38727;40.130;18.292;2024-01-27T03:53:44;8.20;72.40
52611;DHT22;38727;40.130;18.292;2024-01-27T03:56:14;8.20;72.60
52611;DHT22;38727;40.130;18.292;2024-01-27T03:58:46;8.20;72.90
52611;DHT22;38727;40.130;18.292;2024-01-27T04:01:17;8.20;73.20
52611;DHT22;38727;40.130;18.292;2024-01-27T04:03:48;8.10;73.50
52611;DHT22;38727;40.130;18.292;2024-01-27T04:06:19;8.20;73.80
52611;DHT22;38727;40.130;18.292;2024-01-27T04:08:50;8.20;74.00
52611;DHT22;38727;40.130;18.292;2024-01-27T04:11:21;8.30;74.10
52611;DHT22;38727;40.130;18.292;2024-01-27T04:13:54;8.30;74.00
52611;DHT22;38727;40.130;18.292;2024-01-27T04:16:24;8.30;74.00
52611;DHT22;38727;40.130;18.292;2024-01-27T04:18:56;8.30;74.10
52611;DHT22;38727;40.130;18.292;2024-01-27T04:21:27;8.30;74.20
52611;DHT22;38727;40.130;18.292;2024-01-27T04:23:58;8.30;74.20
52611;DHT22;38727;40.130;18.292;2024-01-27T04:26:29;8.40;74.30
52611;DHT22;38727;40.130;18.292;2024-01-27T04:29:01;8.40;74.50
52611;DHT22;38727;40.130;18.292;2024-01-27T04:31:32;8.40;74.70
52611;DHT22;38727;40.130;18.292;2024-01-27T04:34:03;8.30;74.80
52611;DHT22;38727;40.130;18.292;2024-01-27T04:36:34;8.30;74.90
52611;DHT22;38727;40.130;18.292;2024-01-27T04:39:05;8.40;75.10
52611;DHT22;38727;40.130;18.292;2024-01-27T04:41:41;8.40;75.30
52611;DHT22;38727;40.130;18.292;2024-01-27T04:44:13;8.40;75.50
52611;DHT22;38727;40.130;18.292;2024-01-27T04:46:44;8.50;75.80
52611;DHT22;38727;40.130;18.292;2024-01-27T04:49:15;8.50;76.00
52611;DHT22;38727;40.130;18.292;2024-01-27T04:51:47;8.50;76.10
52611;DHT22;38727;40.130;18.292;2024-01-27T04:54:18;8.50;76.10
52611;DHT22;38727;40.130;18.292;2024-01-27T04:56:48;8.60;76.10
52611;DHT22;38727;40.130;18.292;2024-01-27T04:59:20;8.60;76.10
52611;DHT22;38727;40.130;18.292;2024-01-27T05:01:55;8.60;76.10
52611;DHT22;38727;40.130;18.292;2024-01-27T05:04:26;8.70;76.20
52611;DHT22;38727;40.130;18.292;2024-01-27T05:06:56;8.70;76.20
52611;DHT22;38727;40.130;18.292;2024-01-27T05:09:27;8.70;76.20
52611;DHT22;38727;40.130;18.292;2024-01-27T05:11:59;8.70;76.50
52611;DHT22;38727;40.130;18.292;2024-01-27T05:14:33;8.70;76.90
52611;DHT22;38727;40.130;18.292;2024-01-27T05:17:11;8.60;77.30
52611;DHT22;38727;40.130;18.292;2024-01-27T05:19:52;8.70;77.90
52611;DHT22;38727;40.130;18.292;2024-01-27T05:22:29;8.70;78.70
52611;DHT22;38727;40.130;18.292;2024-01-27T05:25:07;8.80;79.20
52611;DHT22;38727;40.130;18.292;2024-01-27T05:27:42;8.80;79.50
52611;DHT22;38727;40.130;18.292;2024-01-27T05:30:15;8.80;79.70
52611;DHT22;38727;40.130;18.292;2024-01-27T05:32:51;8.80;79.90
52611;DHT22;38727;40.130;18.292;2024-01-27T05:35:26;8.80;80.10
52611;DHT22;38727;40.130;18.292;2024-01-27T05:38:09;8.90;80.30
52611;DHT22;38727;40.130;18.292;2024-01-27T05:40:58;8.90;80.60
52611;DHT22;38727;40.130;18.292;2024-01-27T05:43:33;9.00;80.80
52611;DHT22;38727;40.130;18.292;2024-01-27T05:46:08;9.10;81.10
52611;DHT22;38727;40.130;18.292;2024-01-27T05:48:48;9.10;81.30
52611;DHT22;38727;40.130;18.292;2024-01-27T05:51:22;9.20;81.60
52611;DHT22;38727;40.130;18.292;2024-01-27T05:54:01;9.20;81.80
52611;DHT22;38727;40.130;18.292;2024-01-27T05:56:36;9.30;82.00
52611;DHT22;38727;40.130;18.292;2024-01-27T05:59:11;9.30;82.40
52611;DHT22;38727;40.130;18.292;2024-01-27T06:01:44;9.40;82.70
52611;DHT22;38727;40.130;18.292;2024-01-27T06:04:27;9.50;82.90
52611;DHT22;38727;40.130;18.292;2024-01-27T06:07:08;9.60;83.10
52611;DHT22;38727;40.130;18.292;2024-01-27T06:09:42;9.70;83.40
52611;DHT22;38727;40.130;18.292;2024-01-27T06:12:21;9.80;83.60
52611;DHT22;38727;40.130;18.292;2024-01-27T06:14:56;9.80;83.70
52611;DHT22;38727;40.130;18.292;2024-01-27T06:17:44;9.90;83.90
52611;DHT22;38727;40.130;18.292;2024-01-27T06:20:31;9.90;84.00
52611;DHT22;38727;40.130;18.292;2024-01-27T06:23:09;9.90;84.10
52611;DHT22;38727;40.130;18.292;2024-01-27T06:25:44;10.00;84.20
52611;DHT22;38727;40.130;18.292;2024-01-27T06:28:25;10.00;84.30
52611;DHT22;38727;40.130;18.292;2024-01-27T06:31:22;10.00;84.40
52611;DHT22;38727;40.130;18.292;2024-01-27T06:34:01;10.10;84.50
52611;DHT22;38727;40.130;18.292;2024-01-27T06:36:43;10.00;84.60
52611;DHT22;38727;40.130;18.292;2024-01-27T06:39:16;10.00;84.60
52611;DHT22;38727;40.130;18.292;2024-01-27T06:41:47;10.10;84.80
52611;DHT22;38727;40.130;18.292;2024-01-27T06:44:37;10.10;84.90
52611;DHT22;38727;40.130;18.292;2024-01-27T06:47:18;10.20;85.10
52611;DHT22;38727;40.130;18.292;2024-01-27T06:50:16;10.30;85.10
52611;DHT22;38727;40.130;18.292;2024-01-27T06:52:59;10.30;85.10
52611;DHT22;38727;40.130;18.292;2024-01-27T06:55:45;10.50;85.00
52611;DHT22;38727;40.130;18.292;2024-01-27T06:58:23;10.50;85.10
52611;DHT22;38727;40.130;18.292;2024-01-27T07:00:59;10.60;84.70
52611;DHT22;38727;40.130;18.292;2024-01-27T07:03:30;10.60;84.60
52611;DHT22;38727;40.130;18.292;2024-01-27T07:06:12;10.60;84.60
52611;DHT22;38727;40.130;18.292;2024-01-27T07:09:03;10.60;84.30
52611;DHT22;38727;40.130;18.292;2024-01-27T07:11:40;10.60;83.90
52611;DHT22;38727;40.130;18.292;2024-01-27T07:14:15;10.60;83.80
52611;DHT22;38727;40.130;18.292;2024-01-27T07:16:52;10.60;83.80
52611;DHT22;38727;40.130;18.292;2024-01-27T07:19:24;10.50;83.50
52611;DHT22;38727;40.130;18.292;2024-01-27T07:22:07;10.30;83.30
52611;DHT22;38727;40.130;18.292;2024-01-27T07:24:43;10.30;83.40
52611;DHT22;38727;40.130;18.292;2024-01-27T07:27:31;10.30;83.80
52611;DHT22;38727;40.130;18.292;2024-01-27T07:30:02;10.40;84.50
52611;DHT22;38727;40.130;18.292;2024-01-27T07:32:56;10.60;85.10
52611;DHT22;38727;40.130;18.292;2024-01-27T07:35:34;10.70;85.40
52611;DHT22;38727;40.130;18.292;2024-01-27T07:38:18;10.80;85.70
52611;DHT22;38727;40.130;18.292;2024-01-27T07:41:00;10.90;85.80
52611;DHT22;38727;40.130;18.292;2024-01-27T07:43:33;11.00;85.70
52611;DHT22;38727;40.130;18.292;2024-01-27T07:46:08;11.10;85.60
52611;DHT22;38727;40.130;18.292;2024-01-27T07:48:41;11.10;85.50
52611;DHT22;38727;40.130;18.292;2024-01-27T07:51:26;11.20;85.40
52611;DHT22;38727;40.130;18.292;2024-01-27T07:54:22;11.30;85.40
52611;DHT22;38727;40.130;18.292;2024-01-27T07:57:10;11.40;85.40
52611;DHT22;38727;40.130;18.292;2024-01-27T07:59:50;11.50;85.40
52611;DHT22;38727;40.130;18.292;2024-01-27T08:02:20;11.50;85.40
52611;DHT22;38727;40.130;18.292;2024-01-27T08:05:05;11.70;85.20
52611;DHT22;38727;40.130;18.292;2024-01-27T08:07:56;11.80;85.10
52611;DHT22;38727;40.130;18.292;2024-01-27T08:10:51;11.90;84.90
52611;DHT22;38727;40.130;18.292;2024-01-27T08:16:23;11.90;84.50
52611;DHT22;38727;40.130;18.292;2024-01-27T08:19:00;12.00;84.50
52611;DHT22;38727;40.130;18.292;2024-01-27T08:21:31;12.00;84.50
52611;DHT22;38727;40.130;18.292;2024-01-27T08:24:07;12.10;84.50
52611;DHT22;38727;40.130;18.292;2024-01-27T08:26:58;12.20;84.60
52611;DHT22;38727;40.130;18.292;2024-01-27T08:30:02;12.30;84.50
52611;DHT22;38727;40.130;18.292;2024-01-27T08:32:44;12.50;84.30
52611;DHT22;38727;40.130;18.292;2024-01-27T08:35:36;12.70;84.30
52611;DHT22;38727;40.130;18.292;2024-01-27T08:38:42;12.90;83.80
52611;DHT22;38727;40.130;18.292;2024-01-27T08:41:16;13.20;83.40
52611;DHT22;38727;40.130;18.292;2024-01-27T08:43:58;13.40;82.90
52611;DHT22;38727;40.130;18.292;2024-01-27T08:46:39;13.50;81.80
52611;DHT22;38727;40.130;18.292;2024-01-27T08:49:29;13.50;81.50
52611;DHT22;38727;40.130;18.292;2024-01-27T08:52:20;13.60;80.80
52611;DHT22;38727;40.130;18.292;2024-01-27T08:54:53;13.60;80.90
52611;DHT22;38727;40.130;18.292;2024-01-27T08:57:42;13.80;81.00
52611;DHT22;38727;40.130;18.292;2024-01-27T09:00:20;13.90;80.70
52611;DHT22;38727;40.130;18.292;2024-01-27T09:03:18;14.10;78.80
52611;DHT22;38727;40.130;18.292;2024-01-27T09:05:56;14.10;78.20
52611;DHT22;38727;40.130;18.292;2024-01-27T09:08:56;14.30;78.10
52611;DHT22;38727;40.130;18.292;2024-01-27T09:11:44;14.30;76.80
52611;DHT22;38727;40.130;18.292;2024-01-27T09:14:27;14.30;76.40
52611;DHT22;38727;40.130;18.292;2024-01-27T09:17:14;14.50;77.30
52611;DHT22;38727;40.130;18.292;2024-01-27T09:20:18;14.60;76.10
52611;DHT22;38727;40.130;18.292;2024-01-27T09:23:00;14.60;75.70
52611;DHT22;38727;40.130;18.292;2024-01-27T09:25:38;14.60;76.10
52611;DHT22;38727;40.130;18.292;2024-01-27T09:28:38;14.60;75.80
52611;DHT22;38727;40.130;18.292;2024-01-27T09:31:20;14.60;76.10
52611;DHT22;38727;40.130;18.292;2024-01-27T09:34:10;14.70;76.00
52611;DHT22;38727;40.130;18.292;2024-01-27T09:36:46;14.70;76.40
52611;DHT22;38727;40.130;18.292;2024-01-27T09:39:53;14.80;75.90
52611;DHT22;38727;40.130;18.292;2024-01-27T09:42:36;14.80;75.50
52611;DHT22;38727;40.130;18.292;2024-01-27T09:45:40;14.80;75.20
52611;DHT22;38727;40.130;18.292;2024-01-27T09:48:25;15.00;75.60
52611;DHT22;38727;40.130;18.292;2024-01-27T09:51:10;15.10;75.10
52611;DHT22;38727;40.130;18.292;2024-01-27T09:53:47;15.30;75.10
52611;DHT22;38727;40.130;18.292;2024-01-27T09:56:39;15.60;74.50
52611;DHT22;38727;40.130;18.292;2024-01-27T09:59:28;15.80;72.70
52611;DHT22;38727;40.130;18.292;2024-01-27T10:02:31;15.70;72.60
52611;DHT22;38727;40.130;18.292;2024-01-27T10:05:28;15.50;72.60
52611;DHT22;38727;40.130;18.292;2024-01-27T10:08:24;15.40;72.70
52611;DHT22;38727;40.130;18.292;2024-01-27T10:11:17;15.30;72.40
52611;DHT22;38727;40.130;18.292;2024-01-27T10:13:57;15.40;71.60
52611;DHT22;38727;40.130;18.292;2024-01-27T10:16:43;15.30;71.40
52611;DHT22;38727;40.130;18.292;2024-01-27T10:19:22;15.30;71.30
52611;DHT22;38727;40.130;18.292;2024-01-27T10:22:08;15.30;70.90
52611;DHT22;38727;40.130;18.292;2024-01-27T10:24:43;15.20;71.80
52611;DHT22;38727;40.130;18.292;2024-01-27T10:27:25;15.20;71.80
52611;DHT22;38727;40.130;18.292;2024-01-27T10:30:01;15.10;71.60
52611;DHT22;38727;40.130;18.292;2024-01-27T10:33:16;14.90;72.30
52611;DHT22;38727;40.130;18.292;2024-01-27T10:35:57;14.90;72.20
52611;DHT22;38727;40.130;18.292;2024-01-27T10:38:54;15.00;72.30
52611;DHT22;38727;40.130;18.292;2024-01-27T10:41:58;15.10;72.20
52611;DHT22;38727;40.130;18.292;2024-01-27T10:44:56;15.20;71.90
52611;DHT22;38727;40.130;18.292;2024-01-27T10:47:38;15.30;72.00
52611;DHT22;38727;40.130;18.292;2024-01-27T10:50:26;15.40;71.70
52611;DHT22;38727;40.130;18.292;2024-01-27T10:52:58;15.40;70.90
52611;DHT22;38727;40.130;18.292;2024-01-27T10:56:20;15.30;70.40
52611;DHT22;38727;40.130;18.292;2024-01-27T10:59:10;15.30;70.70
52611;DHT22;38727;40.130;18.292;2024-01-27T11:02:02;15.30;71.00
52611;DHT22;38727;40.130;18.292;2024-01-27T11:04:44;15.30;71.30
52611;DHT22;38727;40.130;18.292;2024-01-27T11:07:22;15.40;70.90
52611;DHT22;38727;40.130;18.292;2024-01-27T11:09:59;15.50;70.90
52611;DHT22;38727;40.130;18.292;2024-01-27T11:12:41;15.70;69.50
52611;DHT22;38727;40.130;18.292;2024-01-27T11:16:17;15.80;67.60
52611;DHT22;38727;40.130;18.292;2024-01-27T11:18:53;16.20;66.70
52611;DHT22;38727;40.130;18.292;2024-01-27T11:21:31;16.30;66.20
52611;DHT22;38727;40.130;18.292;2024-01-27T11:24:15;16.60;65.80
52611;DHT22;38727;40.130;18.292;2024-01-27T11:27:04;16.80;65.00
52611;DHT22;38727;40.130;18.292;2024-01-27T11:30:01;16.90;64.60
52611;DHT22;38727;40.130;18.292;2024-01-27T11:33:04;16.80;65.10
52611;DHT22;38727;40.130;18.292;2024-01-27T11:35:45;16.80;65.50
52611;DHT22;38727;40.130;18.292;2024-01-27T11:38:29;16.80;65.60
52611;DHT22;38727;40.130;18.292;2024-01-27T11:41:47;16.80;65.70
52611;DHT22;38727;40.130;18.292;2024-01-27T11:44:44;17.00;64.10
52611;DHT22;38727;40.130;18.292;2024-01-27T11:47:38;17.00;64.50
52611;DHT22;38727;40.130;18.292;2024-01-27T11:50:36;16.80;64.80
52611;DHT22;38727;40.130;18.292;2024-01-27T11:53:26;16.80;65.90
52611;DHT22;38727;40.130;18.292;2024-01-27T11:56:29;16.80;65.20
52611;DHT22;38727;40.130;18.292;2024-01-27T11:59:10;16.80;64.80
52611;DHT22;38727;40.130;18.292;2024-01-27T12:01:51;16.70;64.30
52611;DHT22;38727;40.130;18.292;2024-01-27T12:04:31;16.50;65.20
52611;DHT22;38727;40.130;18.292;2024-01-27T12:07:12;16.80;65.00
52611;DHT22;38727;40.130;18.292;2024-01-27T12:09:49;17.00;63.30
52611;DHT22;38727;40.130;18.292;2024-01-27T12:12:30;16.80;64.20
52611;DHT22;38727;40.130;18.292;2024-01-27T12:15:11;16.90;64.00
52611;DHT22;38727;40.130;18.292;2024-01-27T12:18:04;16.90;64.10
52611;DHT22;38727;40.130;18.292;2024-01-27T12:20:54;17.00;64.60
52611;DHT22;38727;40.130;18.292;2024-01-27T12:23:50;17.30;63.80
52611;DHT22;38727;40.130;18.292;2024-01-27T12:26:26;17.80;62.80
52611;DHT22;38727;40.130;18.292;2024-01-27T12:29:00;17.80;60.70
52611;DHT22;38727;40.130;18.292;2024-01-27T12:31:34;17.70;60.10
52611;DHT22;38727;40.130;18.292;2024-01-27T12:34:19;17.40;60.60
52611;DHT22;38727;40.130;18.292;2024-01-27T12:37:16;17.30;61.40
52611;DHT22;38727;40.130;18.292;2024-01-27T12:40:14;17.00;62.10
52611;DHT22;38727;40.130;18.292;2024-01-27T12:42:52;16.80;62.70
52611;DHT22;38727;40.130;18.292;2024-01-27T12:45:23;16.70;63.50
52611;DHT22;38727;40.130;18.292;2024-01-27T12:48:08;16.80;63.00
52611;DHT22;38727;40.130;18.292;2024-01-27T12:50:40;16.80;62.50
52611;DHT22;38727;40.130;18.292;2024-01-27T12:53:16;16.60;63.40
52611;DHT22;38727;40.130;18.292;2024-01-27T12:55:53;16.60;63.40
52611;DHT22;38727;40.130;18.292;2024-01-27T12:58:33;16.40;63.90
52611;DHT22;38727;40.130;18.292;2024-01-27T13:01:22;16.70;64.30
52611;DHT22;38727;40.130;18.292;2024-01-27T13:04:17;17.20;62.60
52611;DHT22;38727;40.130;18.292;2024-01-27T13:06:58;17.50;61.30
52611;DHT22;38727;40.130;18.292;2024-01-27T13:09:41;17.30;60.40
52611;DHT22;38727;40.130;18.292;2024-01-27T13:12:11;17.20;60.70
52611;DHT22;38727;40.130;18.292;2024-01-27T13:14:53;17.10;61.10
52611;DHT22;38727;40.130;18.292;2024-01-27T13:17:39;17.10;62.30
52611;DHT22;38727;40.130;18.292;2024-01-27T13:20:20;17.00;63.60
52611;DHT22;38727;40.130;18.292;2024-01-27T13:23:01;17.20;62.70
52611;DHT22;38727;40.130;18.292;2024-01-27T13:25:48;17.40;62.10
52611;DHT22;38727;40.130;18.292;2024-01-27T13:28:36;17.80;61.30
52611;DHT22;38727;40.130;18.292;2024-01-27T13:31:15;17.90;60.10
52611;DHT22;38727;40.130;18.292;2024-01-27T13:34:00;17.70;60.30
52611;DHT22;38727;40.130;18.292;2024-01-27T13:36:43;17.20;61.40
52611;DHT22;38727;40.130;18.292;2024-01-27T13:39:41;16.70;63.30
52611;DHT22;38727;40.130;18.292;2024-01-27T13:42:16;16.40;64.10
52611;DHT22;38727;40.130;18.292;2024-01-27T13:44:49;16.30;64.90
52611;DHT22;38727;40.130;18.292;2024-01-27T13:50:21;16.30;65.00
52611;DHT22;38727;40.130;18.292;2024-01-27T13:53:01;16.30;64.70
52611;DHT22;38727;40.130;18.292;2024-01-27T13:55:57;16.20;65.20
52611;DHT22;38727;40.130;18.292;2024-01-27T13:58:43;16.10;64.60
52611;DHT22;38727;40.130;18.292;2024-01-27T14:01:18;16.00;65.40
52611;DHT22;38727;40.130;18.292;2024-01-27T14:03:49;16.00;65.80
52611;DHT22;38727;40.130;18.292;2024-01-27T14:06:25;16.30;65.00
52611;DHT22;38727;40.130;18.292;2024-01-27T14:09:13;16.50;65.30
52611;DHT22;38727;40.130;18.292;2024-01-27T14:11:57;16.70;62.50
52611;DHT22;38727;40.130;18.292;2024-01-27T14:14:33;16.60;63.50
52611;DHT22;38727;40.130;18.292;2024-01-27T14:17:19;16.70;63.50
52611;DHT22;38727;40.130;18.292;2024-01-27T14:20:14;16.80;63.60
52611;DHT22;38727;40.130;18.292;2024-01-27T14:22:48;17.30;61.80
52611;DHT22;38727;40.130;18.292;2024-01-27T14:25:26;17.60;61.30
52611;DHT22;38727;40.130;18.292;2024-01-27T14:31:01;17.70;60.10
52611;DHT22;38727;40.130;18.292;2024-01-27T14:33:42;17.10;61.70
52611;DHT22;38727;40.130;18.292;2024-01-27T14:36:27;16.60;63.30
52611;DHT22;38727;40.130;18.292;2024-01-27T14:39:04;16.20;64.70
52611;DHT22;38727;40.130;18.292;2024-01-27T14:41:41;16.60;63.50
52611;DHT22;38727;40.130;18.292;2024-01-27T14:44:12;16.80;63.50
52611;DHT22;38727;40.130;18.292;2024-01-27T14:46:52;17.80;61.60
52611;DHT22;38727;40.130;18.292;2024-01-27T14:49:30;19.60;57.40
52611;DHT22;38727;40.130;18.292;2024-01-27T14:52:14;21.10;51.40
52611;DHT22;38727;40.130;18.292;2024-01-27T14:54:48;21.60;51.50
52611;DHT22;38727;40.130;18.292;2024-01-27T14:57:19;22.10;49.20
52611;DHT22;38727;40.130;18.292;2024-01-27T14:59:49;22.10;48.60
52611;DHT22;38727;40.130;18.292;2024-01-27T15:02:34;22.40;48.10
52611;DHT22;38727;40.130;18.292;2024-01-27T15:05:52;22.90;46.50
52611;DHT22;38727;40.130;18.292;2024-01-27T15:08:26;22.70;46.60
52611;DHT22;38727;40.130;18.292;2024-01-27T15:14:10;22.10;47.70
52611;DHT22;38727;40.130;18.292;2024-01-27T15:16:51;21.10;50.30
52611;DHT22;38727;40.130;18.292;2024-01-27T15:19:44;21.00;50.80
52611;DHT22;38727;40.130;18.292;2024-01-27T15:22:21;21.20;50.90
52611;DHT22;38727;40.130;18.292;2024-01-27T15:24:58;21.50;50.20
52611;DHT22;38727;40.130;18.292;2024-01-27T15:27:33;21.80;49.30
52611;DHT22;38727;40.130;18.292;2024-01-27T15:30:15;21.80;48.80
52611;DHT22;38727;40.130;18.292;2024-01-27T15:32:53;21.40;49.40
52611;DHT22;38727;40.130;18.292;2024-01-27T15:35:54;20.70;51.10
52611;DHT22;38727;40.130;18.292;2024-01-27T15:38:35;19.50;53.70
52611;DHT22;38727;40.130;18.292;2024-01-27T15:41:10;18.30;57.30
52611;DHT22;38727;40.130;18.292;2024-01-27T15:44:11;17.10;60.30
52611;DHT22;38727;40.130;18.292;2024-01-27T15:47:08;16.30;63.20
52611;DHT22;38727;40.130;18.292;2024-01-27T15:50:22;15.70;65.00
52611;DHT22;38727;40.130;18.292;2024-01-27T15:56:25;15.10;68.10
52611;DHT22;38727;40.130;18.292;2024-01-27T15:59:02;14.80;68.70
52611;DHT22;38727;40.130;18.292;2024-01-27T16:01:47;14.60;69.20
52611;DHT22;38727;40.130;18.292;2024-01-27T16:04:23;14.40;69.60
52611;DHT22;38727;40.130;18.292;2024-01-27T16:06:58;14.30;69.90
52611;DHT22;38727;40.130;18.292;2024-01-27T16:09:49;14.30;70.00
52611;DHT22;38727;40.130;18.292;2024-01-27T16:12:44;14.30;69.90
52611;DHT22;38727;40.130;18.292;2024-01-27T16:15:28;14.10;69.80
52611;DHT22;38727;40.130;18.292;2024-01-27T16:18:20;14.00;69.60
52611;DHT22;38727;40.130;18.292;2024-01-27T16:20:55;13.80;70.00
52611;DHT22;38727;40.130;18.292;2024-01-27T16:23:49;13.80;70.20
52611;DHT22;38727;40.130;18.292;2024-01-27T16:26:21;13.70;70.30
52611;DHT22;38727;40.130;18.292;2024-01-27T16:29:40;13.60;70.50
52611;DHT22;38727;40.130;18.292;2024-01-27T16:32:32;13.50;70.40
52611;DHT22;38727;40.130;18.292;2024-01-27T16:35:08;13.50;70.40
52611;DHT22;38727;40.130;18.292;2024-01-27T16:38:02;13.30;70.50
52611;DHT22;38727;40.130;18.292;2024-01-27T16:40:38;13.30;70.70
52611;DHT22;38727;40.130;18.292;2024-01-27T16:43:20;13.10;71.00
52611;DHT22;38727;40.130;18.292;2024-01-27T16:45:56;13.10;71.10
52611;DHT22;38727;40.130;18.292;2024-01-27T16:48:43;13.00;71.00
52611;DHT22;38727;40.130;18.292;2024-01-27T16:51:25;13.00;70.80
52611;DHT22;38727;40.130;18.292;2024-01-27T16:54:03;12.90;70.70
52611;DHT22;38727;40.130;18.292;2024-01-27T16:56:58;12.80;70.20
52611;DHT22;38727;40.130;18.292;2024-01-27T17:00:17;12.80;70.10
52611;DHT22;38727;40.130;18.292;2024-01-27T17:02:52;12.80;69.90
52611;DHT22;38727;40.130;18.292;2024-01-27T17:05:52;12.70;70.00
52611;DHT22;38727;40.130;18.292;2024-01-27T17:08:43;12.70;70.00
52611;DHT22;38727;40.130;18.292;2024-01-27T17:11:22;12.60;69.80